sensor_id;sensor_type;location;lat;lon;timestamp;pressure;altitude;pressure_sealevel;temperature;humidity
4012;BME280;2020;48.682;9.024;2023-05-23T00:02:19;96306.19;;;15.93;86.20
4012;BME280;2020;48.682;9.024;2023-05-23T00:04:45;96299.34;;;15.92;87.01
4012;BME280;2020;48.682;9.024;2023-05-23T00:07:10;96296.94;;;15.97;86.57
4012;BME280;2020;48.682;9.024;2023-05-23T00:09:35;96299.63;;;16.11;86.96
4012;BME280;2020;48.682;9.024;2023-05-23T00:12:01;96300.63;;;16.10;86.97
4012;BME280;2020;48.682;9.024;2023-05-23T00:14:27;96301.88;;;16.14;88.44
4012;BME280;2020;48.682;9.024;2023-05-23T00:16:55;96301.03;;;16.06;89.48
4012;BME280;2020;48.682;9.024;2023-05-23T00:19:20;96296.53;;;16.00;90.80
4012;BME280;2020;48.682;9.024;2023-05-23T00:21:46;96298.59;;;16.05;92.15
4012;BME280;2020;48.682;9.024;2023-05-23T00:24:13;96293.75;;;16.08;93.05
4012;BME280;2020;48.682;9.024;2023-05-23T00:26:38;96291.53;;;16.05;93.67
4012;BME280;2020;48.682;9.024;2023-05-23T00:29:03;96287.66;;;16.01;93.79
4012;BME280;2020;48.682;9.024;2023-05-23T00:31:29;96291.28;;;16.00;95.63
4012;BME280;2020;48.682;9.024;2023-05-23T00:33:54;96296.94;;;15.97;94.77
4012;BME280;2020;48.682;9.024;2023-05-23T00:36:19;96291.28;;;16.00;94.65
4012;BME280;2020;48.682;9.024;2023-05-23T00:38:46;96286.44;;;15.97;94.45
4012;BME280;2020;48.682;9.024;2023-05-23T00:41:11;96293.69;;;15.95;95.95
4012;BME280;2020;48.682;9.024;2023-05-23T00:43:37;96299.00;;;16.02;97.19
4012;BME280;2020;48.682;9.024;2023-05-23T00:46:02;96302.22;;;16.04;97.14
4012;BME280;2020;48.682;9.024;2023-05-23T00:48:28;96304.88;;;16.11;96.28
4012;BME280;2020;48.682;9.024;2023-05-23T00:50:54;96297.00;;;16.11;97.20
4012;BME280;2020;48.682;9.024;2023-05-23T00:53:20;96305.69;;;16.11;97.37
4012;BME280;2020;48.682;9.024;2023-05-23T00:55:46;96303.47;;;16.15;96.08
4012;BME280;2020;48.682;9.024;2023-05-23T00:58:11;96306.28;;;16.06;98.05
4012;BME280;2020;48.682;9.024;2023-05-23T01:00:39;96315.16;;;16.05;98.12
4012;BME280;2020;48.682;9.024;2023-05-23T01:03:05;96321.22;;;16.06;99.05
4012;BME280;2020;48.682;9.024;2023-05-23T01:05:30;96313.91;;;16.01;99.01
4012;BME280;2020;48.682;9.024;2023-05-23T01:07:55;96314.31;;;15.98;99.46
4012;BME280;2020;48.682;9.024;2023-05-23T01:10:28;96318.38;;;16.01;98.77
4012;BME280;2020;48.682;9.024;2023-05-23T01:13:25;96317.94;;;15.97;99.45
4012;BME280;2020;48.682;9.024;2023-05-23T01:15:58;96321.31;;;15.91;100.00
4012;BME280;2020;48.682;9.024;2023-05-23T01:21:23;96318.69;;;15.91;100.00
4012;BME280;2020;48.682;9.024;2023-05-23T01:27:07;96317.44;;;15.87;100.00
4012;BME280;2020;48.682;9.024;2023-05-23T01:29:37;96321.44;;;15.83;100.00
4012;BME280;2020;48.682;9.024;2023-05-23T01:32:08;96320.44;;;15.84;100.00
4012;BME280;2020;48.682;9.024;2023-05-23T01:34:35;96316.19;;;15.83;100.00
4012;BME280;2020;48.682;9.024;2023-05-23T01:37:00;96318.22;;;15.81;100.00
4012;BME280;2020;48.682;9.024;2023-05-23T01:39:26;96314.59;;;15.82;100.00
4012;BME280;2020;48.682;9.024;2023-05-23T01:41:52;96313.72;;;15.74;100.00
4012;BME280;2020;48.682;9.024;2023-05-23T01:44:18;96314.06;;;15.64;100.00
4012;BME280;2020;48.682;9.024;2023-05-23T01:46:45;96319.25;;;15.58;100.00
4012;BME280;2020;48.682;9.024;2023-05-23T01:49:12;96331.41;;;15.65;100.00
4012;BME280;2020;48.682;9.024;2023-05-23T01:51:39;96326.13;;;15.59;100.00
4012;BME280;2020;48.682;9.024;2023-05-23T01:54:06;96326.22;;;15.72;100.00
4012;BME280;2020;48.682;9.024;2023-05-23T01:56:32;96325.47;;;15.78;100.00
4012;BME280;2020;48.682;9.024;2023-05-23T01:58:57;96329.47;;;15.74;100.00
4012;BME280;2020;48.682;9.024;2023-05-23T02:01:22;96336.34;;;15.75;100.00
4012;BME280;2020;48.682;9.024;2023-05-23T02:03:48;96330.72;;;15.78;100.00
4012;BME280;2020;48.682;9.024;2023-05-23T02:06:13;96338.13;;;15.75;100.00
4012;BME280;2020;48.682;9.024;2023-05-23T02:08:38;96333.09;;;15.73;100.00
4012;BME280;2020;48.682;9.024;2023-05-23T02:11:04;96326.59;;;15.69;100.00
4012;BME280;2020;48.682;9.024;2023-05-23T02:13:29;96326.22;;;15.72;100.00
4012;BME280;2020;48.682;9.024;2023-05-23T02:15:54;96318.50;;;15.64;100.00
4012;BME280;2020;48.682;9.024;2023-05-23T02:18:20;96320.91;;;15.65;100.00
4012;BME280;2020;48.682;9.024;2023-05-23T02:20:45;96325.50;;;15.57;100.00
4012;BME280;2020;48.682;9.024;2023-05-23T02:23:11;96328.91;;;15.50;100.00
4012;BME280;2020;48.682;9.024;2023-05-23T02:25:36;96326.50;;;15.56;100.00
4012;BME280;2020;48.682;9.024;2023-05-23T02:28:01;96320.25;;;15.57;100.00
4012;BME280;2020;48.682;9.024;2023-05-23T02:30:27;96322.88;;;15.57;100.00
4012;BME280;2020;48.682;9.024;2023-05-23T02:32:53;96329.38;;;15.61;100.00
4012;BME280;2020;48.682;9.024;2023-05-23T02:35:19;96327.38;;;15.63;100.00
4012;BME280;2020;48.682;9.024;2023-05-23T02:37:44;96329.00;;;15.64;100.00
4012;BME280;2020;48.682;9.024;2023-05-23T02:40:09;96338.72;;;15.70;100.00
4012;BME280;2020;48.682;9.024;2023-05-23T02:42:35;96331.47;;;15.72;100.00
4012;BME280;2020;48.682;9.024;2023-05-23T02:45:00;96335.50;;;15.75;100.00
4012;BME280;2020;48.682;9.024;2023-05-23T02:47:26;96336.34;;;15.75;100.00
4012;BME280;2020;48.682;9.024;2023-05-23T02:49:51;96333.13;;;15.80;100.00
4012;BME280;2020;48.682;9.024;2023-05-23T02:52:16;96338.38;;;15.80;100.00
4012;BME280;2020;48.682;9.024;2023-05-23T02:54:41;96340.81;;;15.82;100.00
4012;BME280;2020;48.682;9.024;2023-05-23T02:57:07;96345.84;;;15.76;100.00
4012;BME280;2020;48.682;9.024;2023-05-23T02:59:32;96350.06;;;15.77;100.00
4012;BME280;2020;48.682;9.024;2023-05-23T03:01:58;96348.06;;;15.79;100.00
4012;BME280;2020;48.682;9.024;2023-05-23T03:04:23;96348.97;;;15.65;100.00
4012;BME280;2020;48.682;9.024;2023-05-23T03:06:48;96340.66;;;15.61;100.00
4012;BME280;2020;48.682;9.024;2023-05-23T03:09:14;96340.88;;;15.60;100.00
4012;BME280;2020;48.682;9.024;2023-05-23T03:11:42;96342.88;;;15.58;100.00
4012;BME280;2020;48.682;9.024;2023-05-23T03:14:08;96337.88;;;15.63;100.00
4012;BME280;2020;48.682;9.024;2023-05-23T03:16:33;96340.66;;;15.61;100.00
4012;BME280;2020;48.682;9.024;2023-05-23T03:18:58;96337.41;;;15.59;100.00
4012;BME280;2020;48.682;9.024;2023-05-23T03:21:24;96342.09;;;15.64;100.00
4012;BME280;2020;48.682;9.024;2023-05-23T03:23:50;96336.47;;;15.67;100.00
4012;BME280;2020;48.682;9.024;2023-05-23T03:26:15;96338.63;;;15.57;100.00
4012;BME280;2020;48.682;9.024;2023-05-23T03:28:40;96345.06;;;15.54;100.00
4012;BME280;2020;48.682;9.024;2023-05-23T03:31:05;96348.28;;;15.56;100.00
4012;BME280;2020;48.682;9.024;2023-05-23T03:33:31;96349.25;;;15.48;100.00
4012;BME280;2020;48.682;9.024;2023-05-23T03:35:56;96352.28;;;15.52;100.00
4012;BME280;2020;48.682;9.024;2023-05-23T03:38:22;96351.69;;;15.50;100.00
4012;BME280;2020;48.682;9.024;2023-05-23T03:40:47;96355.53;;;15.54;100.00
4012;BME280;2020;48.682;9.024;2023-05-23T03:43:12;96355.38;;;15.56;100.00
4012;BME280;2020;48.682;9.024;2023-05-23T03:45:37;96355.50;;;15.47;100.00
4012;BME280;2020;48.682;9.024;2023-05-23T03:48:03;96352.44;;;15.44;100.00
4012;BME280;2020;48.682;9.024;2023-05-23T03:50:28;96350.25;;;15.47;100.00
4012;BME280;2020;48.682;9.024;2023-05-23T03:52:53;96350.28;;;15.54;100.00
4012;BME280;2020;48.682;9.024;2023-05-23T03:55:22;96356.00;;;15.58;100.00
4012;BME280;2020;48.682;9.024;2023-05-23T03:57:48;96355.78;;;15.59;100.00
4012;BME280;2020;48.682;9.024;2023-05-23T04:00:14;96353.59;;;15.63;100.00
4012;BME280;2020;48.682;9.024;2023-05-23T04:02:40;96350.38;;;15.61;100.00
4012;BME280;2020;48.682;9.024;2023-05-23T04:05:05;96351.97;;;15.62;100.00
4012;BME280;2020;48.682;9.024;2023-05-23T04:07:31;96358.03;;;15.62;100.00
4012;BME280;2020;48.682;9.024;2023-05-23T04:09:59;96355.59;;;15.61;100.00
4012;BME280;2020;48.682;9.024;2023-05-23T04:12:24;96360.84;;;15.61;100.00
4012;BME280;2020;48.682;9.024;2023-05-23T04:14:49;96358.84;;;15.63;100.00
4012;BME280;2020;48.682;9.024;2023-05-23T04:17:15;96363.47;;;15.61;100.00
4012;BME280;2020;48.682;9.024;2023-05-23T04:19:40;96367.09;;;15.60;100.00
4012;BME280;2020;48.682;9.024;2023-05-23T04:22:05;96360.66;;;15.62;100.00
4012;BME280;2020;48.682;9.024;2023-05-23T04:24:30;96369.34;;;15.63;100.00
4012;BME280;2020;48.682;9.024;2023-05-23T04:26:56;96362.28;;;15.63;100.00
4012;BME280;2020;48.682;9.024;2023-05-23T04:29:21;96364.09;;;15.63;100.00
4012;BME280;2020;48.682;9.024;2023-05-23T04:31:46;96362.03;;;15.58;100.00
4012;BME280;2020;48.682;9.024;2023-05-23T04:34:11;96365.63;;;15.50;100.00
4012;BME280;2020;48.682;9.024;2023-05-23T04:36:37;96365.38;;;15.45;100.00
4012;BME280;2020;48.682;9.024;2023-05-23T04:39:04;96368.75;;;15.39;100.00
4012;BME280;2020;48.682;9.024;2023-05-23T04:41:29;96374.00;;;15.39;100.00
4012;BME280;2020;48.682;9.024;2023-05-23T04:43:55;96370.38;;;15.40;100.00
4012;BME280;2020;48.682;9.024;2023-05-23T04:46:22;96377.88;;;15.43;100.00
4012;BME280;2020;48.682;9.024;2023-05-23T04:48:51;96380.47;;;15.43;100.00
4012;BME280;2020;48.682;9.024;2023-05-23T04:51:17;96381.25;;;15.37;100.00
4012;BME280;2020;48.682;9.024;2023-05-23T04:53:42;96377.63;;;15.38;100.00
4012;BME280;2020;48.682;9.024;2023-05-23T04:56:08;96381.84;;;15.39;100.00
4012;BME280;2020;48.682;9.024;2023-05-23T04:58:34;96382.84;;;15.38;100.00
4012;BME280;2020;48.682;9.024;2023-05-23T05:00:59;96390.72;;;15.38;100.00
4012;BME280;2020;48.682;9.024;2023-05-23T05:03:24;96390.09;;;15.36;100.00
4012;BME280;2020;48.682;9.024;2023-05-23T05:05:50;96384.84;;;15.36;100.00
4012;BME280;2020;48.682;9.024;2023-05-23T05:08:15;96391.34;;;15.40;100.00
4012;BME280;2020;48.682;9.024;2023-05-23T05:10:43;96394.97;;;15.39;100.00
4012;BME280;2020;48.682;9.024;2023-05-23T05:13:09;96394.34;;;15.37;100.00
4012;BME280;2020;48.682;9.024;2023-05-23T05:15:34;96390.47;;;15.33;100.00
4012;BME280;2020;48.682;9.024;2023-05-23T05:18:00;96402.72;;;15.26;100.00
4012;BME280;2020;48.682;9.024;2023-05-23T05:20:25;96395.72;;;15.33;100.00
4012;BME280;2020;48.682;9.024;2023-05-23T05:22:56;96398.22;;;15.41;100.00
4012;BME280;2020;48.682;9.024;2023-05-23T05:25:22;96403.88;;;15.45;100.00
4012;BME280;2020;48.682;9.024;2023-05-23T05:27:48;96407.13;;;15.47;100.00
4012;BME280;2020;48.682;9.024;2023-05-23T05:30:13;96406.59;;;15.30;100.00
4012;BME280;2020;48.682;9.024;2023-05-23T05:32:38;96404.59;;;15.32;100.00
4012;BME280;2020;48.682;9.024;2023-05-23T05:35:04;96405.00;;;15.35;100.00
4012;BME280;2020;48.682;9.024;2023-05-23T05:37:31;96408.84;;;15.33;100.00
4012;BME280;2020;48.682;9.024;2023-05-23T05:39:57;96409.84;;;15.32;100.00
4012;BME280;2020;48.682;9.024;2023-05-23T05:42:23;96421.94;;;15.33;100.00
4012;BME280;2020;48.682;9.024;2023-05-23T05:44:49;96412.25;;;15.33;100.00
4012;BME280;2020;48.682;9.024;2023-05-23T05:47:14;96414.69;;;15.35;100.00
4012;BME280;2020;48.682;9.024;2023-05-23T05:49:40;96421.56;;;15.36;100.00
4012;BME280;2020;48.682;9.024;2023-05-23T05:52:06;96415.81;;;15.26;100.00
4012;BME280;2020;48.682;9.024;2023-05-23T05:54:31;96422.06;;;15.25;100.00
4012;BME280;2020;48.682;9.024;2023-05-23T05:56:57;96419.78;;;15.21;100.00
4012;BME280;2020;48.682;9.024;2023-05-23T05:59:22;96424.69;;;15.25;100.00
4012;BME280;2020;48.682;9.024;2023-05-23T06:01:47;96413.06;;;15.34;100.00
4012;BME280;2020;48.682;9.024;2023-05-23T06:04:15;96413.44;;;15.31;100.00
4012;BME280;2020;48.682;9.024;2023-05-23T06:06:40;96417.06;;;15.30;100.00
4012;BME280;2020;48.682;9.024;2023-05-23T06:09:06;96415.06;;;15.32;100.00
4012;BME280;2020;48.682;9.024;2023-05-23T06:11:31;96421.84;;;15.26;100.00
4012;BME280;2020;48.682;9.024;2023-05-23T06:13:56;96424.72;;;15.31;100.00
4012;BME280;2020;48.682;9.024;2023-05-23T06:16:22;96420.69;;;15.29;100.00
4012;BME280;2020;48.682;9.024;2023-05-23T06:18:47;96421.94;;;15.33;100.00
4012;BME280;2020;48.682;9.024;2023-05-23T06:21:12;96422.81;;;15.40;100.00
4012;BME280;2020;48.682;9.024;2023-05-23T06:23:37;96429.31;;;15.44;100.00
4012;BME280;2020;48.682;9.024;2023-05-23T06:26:03;96425.69;;;15.45;100.00
4012;BME280;2020;48.682;9.024;2023-05-23T06:28:32;96424.44;;;15.41;100.00
4012;BME280;2020;48.682;9.024;2023-05-23T06:30:57;96431.31;;;15.42;100.00
4012;BME280;2020;48.682;9.024;2023-05-23T06:33:22;96426.31;;;15.47;100.00
4012;BME280;2020;48.682;9.024;2023-05-23T06:35:47;96427.34;;;15.53;100.00
4012;BME280;2020;48.682;9.024;2023-05-23T06:38:13;96432.81;;;15.52;100.00
4012;BME280;2020;48.682;9.024;2023-05-23T06:40:38;96441.56;;;15.59;99.55
4012;BME280;2020;48.682;9.024;2023-05-23T06:43:03;96444.78;;;15.61;98.71
4012;BME280;2020;48.682;9.024;2023-05-23T06:45:29;96440.94;;;15.57;98.21
4012;BME280;2020;48.682;9.024;2023-05-23T06:47:54;96442.69;;;15.49;97.28
4012;BME280;2020;48.682;9.024;2023-05-23T06:50:19;96442.69;;;15.49;97.82
4012;BME280;2020;48.682;9.024;2023-05-23T06:52:45;96448.34;;;15.53;97.33
4012;BME280;2020;48.682;9.024;2023-05-23T06:55:11;96446.78;;;15.59;97.71
4012;BME280;2020;48.682;9.024;2023-05-23T06:57:42;96457.28;;;15.59;97.74
4012;BME280;2020;48.682;9.024;2023-05-23T07:00:08;96452.03;;;15.59;97.53
4012;BME280;2020;48.682;9.024;2023-05-23T07:02:33;96465.28;;;15.50;97.75
4012;BME280;2020;48.682;9.024;2023-05-23T07:04:58;96459.16;;;15.43;98.35
4012;BME280;2020;48.682;9.024;2023-05-23T07:07:23;96466.41;;;15.41;98.17
4012;BME280;2020;48.682;9.024;2023-05-23T07:09:49;96467.16;;;15.35;97.76
4012;BME280;2020;48.682;9.024;2023-05-23T07:12:14;96470.75;;;15.34;98.07
4012;BME280;2020;48.682;9.024;2023-05-23T07:14:40;96468.88;;;15.28;98.11
4012;BME280;2020;48.682;9.024;2023-05-23T07:17:05;96474.56;;;15.16;97.96
4012;BME280;2020;48.682;9.024;2023-05-23T07:19:31;96485.78;;;15.10;97.94
4012;BME280;2020;48.682;9.024;2023-05-23T07:21:56;96479.13;;;15.08;97.68
4012;BME280;2020;48.682;9.024;2023-05-23T07:24:21;96482.13;;;15.04;97.30
4012;BME280;2020;48.682;9.024;2023-05-23T07:26:46;96486.63;;;14.96;97.61
4012;BME280;2020;48.682;9.024;2023-05-23T07:29:12;96491.25;;;14.94;97.50
4012;BME280;2020;48.682;9.024;2023-05-23T07:31:37;96487.09;;;14.84;97.49
4012;BME280;2020;48.682;9.024;2023-05-23T07:34:02;96490.34;;;14.86;97.04
4012;BME280;2020;48.682;9.024;2023-05-23T07:36:27;96493.59;;;14.88;96.82
4012;BME280;2020;48.682;9.024;2023-05-23T07:38:53;96495.59;;;14.86;96.48
4012;BME280;2020;48.682;9.024;2023-05-23T07:41:19;96503.28;;;14.88;96.24
4012;BME280;2020;48.682;9.024;2023-05-23T07:43:44;96502.09;;;14.90;96.37
4012;BME280;2020;48.682;9.024;2023-05-23T07:46:10;96501.81;;;14.85;95.76
4012;BME280;2020;48.682;9.024;2023-05-23T07:48:35;96502.38;;;14.81;95.13
4012;BME280;2020;48.682;9.024;2023-05-23T07:51:00;96506.06;;;14.86;95.36
4012;BME280;2020;48.682;9.024;2023-05-23T07:53:26;96508.59;;;14.95;95.04
4012;BME280;2020;48.682;9.024;2023-05-23T07:55:51;96508.59;;;14.95;93.69
4012;BME280;2020;48.682;9.024;2023-05-23T07:58:16;96503.72;;;15.06;94.02
4012;BME280;2020;48.682;9.024;2023-05-23T08:00:41;96508.03;;;15.14;92.72
4012;BME280;2020;48.682;9.024;2023-05-23T08:03:08;96503.66;;;15.21;92.12
4012;BME280;2020;48.682;9.024;2023-05-23T08:05:33;96507.28;;;15.20;92.53
4012;BME280;2020;48.682;9.024;2023-05-23T08:07:58;96507.13;;;15.07;92.06
4012;BME280;2020;48.682;9.024;2023-05-23T08:10:24;96508.50;;;15.03;91.87
4012;BME280;2020;48.682;9.024;2023-05-23T08:12:52;96505.88;;;15.03;92.48
4012;BME280;2020;48.682;9.024;2023-05-23T08:15:17;96513.94;;;14.86;92.51
4012;BME280;2020;48.682;9.024;2023-05-23T08:17:42;96513.66;;;14.81;92.96
4012;BME280;2020;48.682;9.024;2023-05-23T08:20:08;96519.81;;;14.88;93.03
4012;BME280;2020;48.682;9.024;2023-05-23T08:22:34;96524.97;;;14.82;92.88
4012;BME280;2020;48.682;9.024;2023-05-23T08:25:00;96518.00;;;14.74;92.11
4012;BME280;2020;48.682;9.024;2023-05-23T08:27:26;96519.97;;;14.72;92.54
4012;BME280;2020;48.682;9.024;2023-05-23T08:29:52;96519.19;;;14.71;91.94
4012;BME280;2020;48.682;9.024;2023-05-23T08:32:17;96529.16;;;14.68;92.05
4012;BME280;2020;48.682;9.024;2023-05-23T08:34:42;96535.69;;;14.72;91.87
4012;BME280;2020;48.682;9.024;2023-05-23T08:37:08;96525.22;;;14.72;91.26
4012;BME280;2020;48.682;9.024;2023-05-23T08:39:33;96527.75;;;14.80;90.62
4012;BME280;2020;48.682;9.024;2023-05-23T08:41:59;96536.50;;;14.87;89.31
4012;BME280;2020;48.682;9.024;2023-05-23T08:44:25;96541.66;;;14.96;88.97
4012;BME280;2020;48.682;9.024;2023-05-23T08:46:52;96536.16;;;14.90;88.47
4012;BME280;2020;48.682;9.024;2023-05-23T08:49:17;96549.97;;;14.84;89.18
4012;BME280;2020;48.682;9.024;2023-05-23T08:51:43;96548.09;;;14.78;89.01
4012;BME280;2020;48.682;9.024;2023-05-23T08:54:09;96545.25;;;14.65;89.39
4012;BME280;2020;48.682;9.024;2023-05-23T08:56:37;96552.09;;;14.66;89.59
4012;BME280;2020;48.682;9.024;2023-05-23T08:59:03;96557.34;;;14.66;90.75
4012;BME280;2020;48.682;9.024;2023-05-23T09:01:29;96552.56;;;14.69;89.80
4012;BME280;2020;48.682;9.024;2023-05-23T09:03:55;96561.19;;;14.78;89.21
4012;BME280;2020;48.682;9.024;2023-05-23T09:06:24;96548.16;;;14.70;88.17
4012;BME280;2020;48.682;9.024;2023-05-23T09:08:49;96556.78;;;14.79;87.81
4012;BME280;2020;48.682;9.024;2023-05-23T09:11:15;96557.56;;;14.79;87.25
4012;BME280;2020;48.682;9.024;2023-05-23T09:13:40;96554.84;;;14.87;87.17
4012;BME280;2020;48.682;9.024;2023-05-23T09:16:08;96549.78;;;15.01;85.99
4012;BME280;2020;48.682;9.024;2023-05-23T09:18:36;96560.44;;;15.14;85.13
4012;BME280;2020;48.682;9.024;2023-05-23T09:21:02;96562.06;;;15.15;84.38
4012;BME280;2020;48.682;9.024;2023-05-23T09:23:29;96568.50;;;15.28;85.42
4012;BME280;2020;48.682;9.024;2023-05-23T09:25:55;96563.16;;;15.36;84.56
4012;BME280;2020;48.682;9.024;2023-05-23T09:28:20;96565.69;;;15.44;84.61
4012;BME280;2020;48.682;9.024;2023-05-23T09:30:46;96567.78;;;15.34;83.06
4012;BME280;2020;48.682;9.024;2023-05-23T09:33:13;96570.22;;;15.20;84.42
4012;BME280;2020;48.682;9.024;2023-05-23T09:35:43;96569.84;;;15.24;84.92
4012;BME280;2020;48.682;9.024;2023-05-23T09:38:09;96571.13;;;15.28;84.11
4012;BME280;2020;48.682;9.024;2023-05-23T09:40:34;96581.25;;;15.31;83.19
4012;BME280;2020;48.682;9.024;2023-05-23T09:43:03;96575.75;;;15.26;82.62
4012;BME280;2020;48.682;9.024;2023-05-23T09:45:30;96583.69;;;15.32;82.60
4012;BME280;2020;48.682;9.024;2023-05-23T09:47:55;96581.06;;;15.47;81.53
4012;BME280;2020;48.682;9.024;2023-05-23T09:50:21;96573.81;;;15.49;80.95
4012;BME280;2020;48.682;9.024;2023-05-23T09:52:47;96581.31;;;15.53;80.85
4012;BME280;2020;48.682;9.024;2023-05-23T09:55:12;96580.38;;;15.60;79.36
4012;BME280;2020;48.682;9.024;2023-05-23T09:57:40;96578.09;;;15.72;79.32
4012;BME280;2020;48.682;9.024;2023-05-23T10:00:07;96569.75;;;15.84;78.11
4012;BME280;2020;48.682;9.024;2023-05-23T10:05:44;96580.03;;;16.00;77.07
4012;BME280;2020;48.682;9.024;2023-05-23T10:08:17;96582.97;;;16.12;76.87
4012;BME280;2020;48.682;9.024;2023-05-23T10:11:07;96577.34;;;16.15;75.66
4012;BME280;2020;48.682;9.024;2023-05-23T10:13:45;96576.97;;;16.18;76.39
4012;BME280;2020;48.682;9.024;2023-05-23T10:16:16;96576.78;;;16.20;76.04
4012;BME280;2020;48.682;9.024;2023-05-23T10:18:43;96581.72;;;16.08;75.07
4012;BME280;2020;48.682;9.024;2023-05-23T10:21:11;96579.16;;;16.15;74.41
4012;BME280;2020;48.682;9.024;2023-05-23T10:23:41;96578.28;;;16.07;74.00
4012;BME280;2020;48.682;9.024;2023-05-23T10:26:06;96581.47;;;16.25;74.17
4012;BME280;2020;48.682;9.024;2023-05-23T10:28:32;96573.22;;;16.28;73.22
4012;BME280;2020;48.682;9.024;2023-05-23T10:30:58;96572.25;;;16.35;72.62
4012;BME280;2020;48.682;9.024;2023-05-23T10:33:25;96566.69;;;16.45;72.90
4012;BME280;2020;48.682;9.024;2023-05-23T10:39:03;96568.94;;;16.77;72.09
4012;BME280;2020;48.682;9.024;2023-05-23T10:41:30;96573.00;;;16.79;71.26
4012;BME280;2020;48.682;9.024;2023-05-23T10:44:09;96571.72;;;16.69;70.84
4012;BME280;2020;48.682;9.024;2023-05-23T10:46:52;96563.31;;;16.80;69.16
4012;BME280;2020;48.682;9.024;2023-05-23T10:49:18;96567.50;;;17.03;68.88
4012;BME280;2020;48.682;9.024;2023-05-23T10:51:47;96561.38;;;17.31;67.98
4012;BME280;2020;48.682;9.024;2023-05-23T10:54:14;96564.50;;;17.48;68.39
4012;BME280;2020;48.682;9.024;2023-05-23T10:56:39;96575.81;;;17.48;65.55
4012;BME280;2020;48.682;9.024;2023-05-23T10:59:04;96569.66;;;17.28;65.53
4012;BME280;2020;48.682;9.024;2023-05-23T11:01:30;96573.34;;;17.40;65.57
4012;BME280;2020;48.682;9.024;2023-05-23T11:03:56;96565.34;;;17.62;64.14
4012;BME280;2020;48.682;9.024;2023-05-23T11:06:41;96565.03;;;17.92;64.50
4012;BME280;2020;48.682;9.024;2023-05-23T11:11:54;96568.66;;;17.97;65.34
4012;BME280;2020;48.682;9.024;2023-05-23T11:16:57;96570.16;;;17.51;66.48
4012;BME280;2020;48.682;9.024;2023-05-23T11:19:24;96576.53;;;17.29;67.09
4012;BME280;2020;48.682;9.024;2023-05-23T11:22:16;96581.06;;;17.48;66.39
4012;BME280;2020;48.682;9.024;2023-05-23T11:27:30;96579.44;;;17.41;66.25
4012;BME280;2020;48.682;9.024;2023-05-23T11:32:22;96581.41;;;17.32;66.02
4012;BME280;2020;48.682;9.024;2023-05-23T11:34:48;96587.19;;;17.56;65.74
4012;BME280;2020;48.682;9.024;2023-05-23T11:37:13;96583.25;;;17.38;65.42
4012;BME280;2020;48.682;9.024;2023-05-23T11:39:39;96592.53;;;17.27;64.79
4012;BME280;2020;48.682;9.024;2023-05-23T11:42:04;96580.63;;;17.31;66.39
4012;BME280;2020;48.682;9.024;2023-05-23T11:44:30;96583.53;;;17.57;65.39
4012;BME280;2020;48.682;9.024;2023-05-23T11:47:03;96571.44;;;17.69;62.30
4012;BME280;2020;48.682;9.024;2023-05-23T11:49:30;96569.84;;;17.81;61.56
4012;BME280;2020;48.682;9.024;2023-05-23T11:51:57;96566.66;;;18.00;62.40
4012;BME280;2020;48.682;9.024;2023-05-23T11:54:24;96567.06;;;17.90;61.81
4012;BME280;2020;48.682;9.024;2023-05-23T11:56:50;96570.06;;;17.87;62.33
4012;BME280;2020;48.682;9.024;2023-05-23T11:59:15;96562.25;;;18.00;61.89
4012;BME280;2020;48.682;9.024;2023-05-23T12:01:42;96567.13;;;18.17;63.13
4012;BME280;2020;48.682;9.024;2023-05-23T12:04:10;96559.63;;;18.27;61.51
4012;BME280;2020;48.682;9.024;2023-05-23T12:06:38;96555.38;;;18.26;61.61
4012;BME280;2020;48.682;9.024;2023-05-23T12:09:04;96565.09;;;18.25;60.08
4012;BME280;2020;48.682;9.024;2023-05-23T12:11:33;96564.69;;;18.22;60.11
4012;BME280;2020;48.682;9.024;2023-05-23T12:13:59;96562.59;;;17.97;63.34
4012;BME280;2020;48.682;9.024;2023-05-23T12:16:27;96562.94;;;17.80;62.92
4012;BME280;2020;48.682;9.024;2023-05-23T12:18:53;96568.94;;;17.47;64.60
4012;BME280;2020;48.682;9.024;2023-05-23T12:21:18;96558.34;;;17.34;65.22
4012;BME280;2020;48.682;9.024;2023-05-23T12:23:44;96563.25;;;17.44;64.77
4012;BME280;2020;48.682;9.024;2023-05-23T12:26:09;96566.13;;;17.56;64.43
4012;BME280;2020;48.682;9.024;2023-05-23T12:28:36;96566.78;;;17.71;64.50
4012;BME280;2020;48.682;9.024;2023-05-23T12:31:20;96562.72;;;17.75;62.76
4012;BME280;2020;48.682;9.024;2023-05-23T12:33:46;96563.22;;;17.99;62.54
4012;BME280;2020;48.682;9.024;2023-05-23T12:36:12;96561.38;;;17.93;61.61
4012;BME280;2020;48.682;9.024;2023-05-23T12:38:37;96558.97;;;17.98;62.15
4012;BME280;2020;48.682;9.024;2023-05-23T12:41:09;96551.28;;;18.10;60.73
4012;BME280;2020;48.682;9.024;2023-05-23T12:43:48;96548.06;;;18.01;59.23
4012;BME280;2020;48.682;9.024;2023-05-23T12:46:13;96543.97;;;17.98;60.63
4012;BME280;2020;48.682;9.024;2023-05-23T12:48:39;96533.88;;;18.56;58.70
4012;BME280;2020;48.682;9.024;2023-05-23T12:51:05;96535.03;;;19.00;59.22
4012;BME280;2020;48.682;9.024;2023-05-23T12:53:30;96527.59;;;18.57;57.55
4012;BME280;2020;48.682;9.024;2023-05-23T12:55:55;96539.97;;;18.56;60.78
4012;BME280;2020;48.682;9.024;2023-05-23T12:58:21;96534.69;;;18.30;58.84
4012;BME280;2020;48.682;9.024;2023-05-23T13:00:46;96544.84;;;18.12;58.03
4012;BME280;2020;48.682;9.024;2023-05-23T13:03:11;96535.09;;;18.20;59.15
4012;BME280;2020;48.682;9.024;2023-05-23T13:05:37;96538.34;;;18.35;59.17
4012;BME280;2020;48.682;9.024;2023-05-23T13:08:02;96537.13;;;18.38;58.71
4012;BME280;2020;48.682;9.024;2023-05-23T13:10:28;96538.34;;;18.35;57.51
4012;BME280;2020;48.682;9.024;2023-05-23T13:12:53;96531.06;;;18.37;56.37
4012;BME280;2020;48.682;9.024;2023-05-23T13:15:18;96534.47;;;18.51;58.66
4012;BME280;2020;48.682;9.024;2023-05-23T13:17:44;96537.09;;;18.78;57.30
4012;BME280;2020;48.682;9.024;2023-05-23T13:20:10;96537.56;;;19.34;56.82
4012;BME280;2020;48.682;9.024;2023-05-23T13:22:37;96538.06;;;19.56;54.82
4012;BME280;2020;48.682;9.024;2023-05-23T13:25:03;96538.72;;;19.91;53.66
4012;BME280;2020;48.682;9.024;2023-05-23T13:27:28;96537.94;;;19.90;53.54
4012;BME280;2020;48.682;9.024;2023-05-23T13:29:53;96527.38;;;19.90;53.76
4012;BME280;2020;48.682;9.024;2023-05-23T13:32:19;96529.00;;;19.78;54.90
4012;BME280;2020;48.682;9.024;2023-05-23T13:34:44;96526.16;;;19.79;53.97
4012;BME280;2020;48.682;9.024;2023-05-23T13:37:09;96527.44;;;19.70;54.94